sensor_id;sensor_type;location;lat;lon;timestamp;P1;durP1;ratioP1;P2;durP2;ratioP2
29402;SDS011;16382;59.942;30.472;2023-04-24T00:01:41;23.42;;;4.82;;
29402;SDS011;16382;59.942;30.472;2023-04-24T00:04:09;10.20;;;5.38;;
29402;SDS011;16382;59.942;30.472;2023-04-24T00:06:40;17.25;;;5.63;;
29402;SDS011;16382;59.942;30.472;2023-04-24T00:09:08;18.27;;;5.20;;
29402;SDS011;16382;59.942;30.472;2023-04-24T00:11:36;15.23;;;4.82;;
29402;SDS011;16382;59.942;30.472;2023-04-24T00:14:04;14.45;;;5.05;;
29402;SDS011;16382;59.942;30.472;2023-04-24T00:16:32;20.42;;;5.70;;
29402;SDS011;16382;59.942;30.472;2023-04-24T00:19:00;13.25;;;5.43;;
29402;SDS011;16382;59.942;30.472;2023-04-24T00:21:27;14.10;;;5.10;;
29402;SDS011;16382;59.942;30.472;2023-04-24T00:23:56;12.77;;;4.72;;
29402;SDS011;16382;59.942;30.472;2023-04-24T00:26:24;11.32;;;5.45;;
29402;SDS011;16382;59.942;30.472;2023-04-24T00:28:51;6.90;;;5.05;;
29402;SDS011;16382;59.942;30.472;2023-04-24T00:31:19;9.95;;;5.15;;
29402;SDS011;16382;59.942;30.472;2023-04-24T00:33:46;12.65;;;5.28;;
29402;SDS011;16382;59.942;30.472;2023-04-24T00:36:14;8.57;;;4.63;;
29402;SDS011;16382;59.942;30.472;2023-04-24T00:38:41;9.00;;;4.95;;
29402;SDS011;16382;59.942;30.472;2023-04-24T00:41:10;9.00;;;4.40;;
29402;SDS011;16382;59.942;30.472;2023-04-24T00:43:38;7.68;;;5.25;;
29402;SDS011;16382;59.942;30.472;2023-04-24T00:46:06;8.25;;;4.32;;
29402;SDS011;16382;59.942;30.472;2023-04-24T00:48:34;10.80;;;5.07;;
29402;SDS011;16382;59.942;30.472;2023-04-24T00:51:01;12.02;;;5.15;;
29402;SDS011;16382;59.942;30.472;2023-04-24T00:53:29;15.13;;;5.00;;
29402;SDS011;16382;59.942;30.472;2023-04-24T00:55:56;10.95;;;5.03;;
29402;SDS011;16382;59.942;30.472;2023-04-24T00:58:26;10.27;;;4.95;;
29402;SDS011;16382;59.942;30.472;2023-04-24T01:00:54;12.27;;;4.90;;
29402;SDS011;16382;59.942;30.472;2023-04-24T01:03:25;8.70;;;4.50;;
29402;SDS011;16382;59.942;30.472;2023-04-24T01:05:57;12.77;;;5.32;;
29402;SDS011;16382;59.942;30.472;2023-04-24T01:08:24;10.10;;;4.50;;
29402;SDS011;16382;59.942;30.472;2023-04-24T01:10:56;11.60;;;4.63;;
29402;SDS011;16382;59.942;30.472;2023-04-24T01:13:25;10.27;;;4.43;;
29402;SDS011;16382;59.942;30.472;2023-04-24T01:15:53;9.48;;;4.63;;
29402;SDS011;16382;59.942;30.472;2023-04-24T01:18:21;9.20;;;4.82;;
29402;SDS011;16382;59.942;30.472;2023-04-24T01:20:50;13.98;;;4.75;;
29402;SDS011;16382;59.942;30.472;2023-04-24T01:23:22;8.48;;;4.88;;
29402;SDS011;16382;59.942;30.472;2023-04-24T01:25:51;10.43;;;4.85;;
29402;SDS011;16382;59.942;30.472;2023-04-24T01:28:18;11.63;;;4.60;;
29402;SDS011;16382;59.942;30.472;2023-04-24T01:30:46;14.57;;;5.13;;
29402;SDS011;16382;59.942;30.472;2023-04-24T01:33:14;10.18;;;4.38;;
29402;SDS011;16382;59.942;30.472;2023-04-24T01:35:42;9.07;;;4.40;;
29402;SDS011;16382;59.942;30.472;2023-04-24T01:38:09;11.10;;;5.03;;
29402;SDS011;16382;59.942;30.472;2023-04-24T01:40:38;13.20;;;4.82;;
29402;SDS011;16382;59.942;30.472;2023-04-24T01:43:06;14.05;;;5.38;;
29402;SDS011;16382;59.942;30.472;2023-04-24T01:45:34;8.52;;;4.38;;
29402;SDS011;16382;59.942;30.472;2023-04-24T01:48:03;10.20;;;4.53;;
29402;SDS011;16382;59.942;30.472;2023-04-24T01:50:31;14.77;;;4.43;;
29402;SDS011;16382;59.942;30.472;2023-04-24T01:52:58;12.45;;;4.43;;
29402;SDS011;16382;59.942;30.472;2023-04-24T01:55:26;11.75;;;4.22;;
29402;SDS011;16382;59.942;30.472;2023-04-24T01:57:55;9.65;;;3.95;;
29402;SDS011;16382;59.942;30.472;2023-04-24T02:00:23;13.40;;;4.75;;
29402;SDS011;16382;59.942;30.472;2023-04-24T02:02:53;10.88;;;4.50;;
29402;SDS011;16382;59.942;30.472;2023-04-24T02:05:20;17.10;;;3.97;;
29402;SDS011;16382;59.942;30.472;2023-04-24T02:07:48;9.48;;;4.55;;
29402;SDS011;16382;59.942;30.472;2023-04-24T02:10:15;12.15;;;4.07;;
29402;SDS011;16382;59.942;30.472;2023-04-24T02:12:45;12.45;;;4.70;;
29402;SDS011;16382;59.942;30.472;2023-04-24T02:15:17;10.02;;;4.25;;
29402;SDS011;16382;59.942;30.472;2023-04-24T02:17:45;9.77;;;3.95;;
29402;SDS011;16382;59.942;30.472;2023-04-24T02:20:12;9.85;;;4.20;;
29402;SDS011;16382;59.942;30.472;2023-04-24T02:22:40;14.02;;;4.05;;
29402;SDS011;16382;59.942;30.472;2023-04-24T02:25:08;8.23;;;4.63;;
29402;SDS011;16382;59.942;30.472;2023-04-24T02:27:35;26.50;;;5.50;;
29402;SDS011;16382;59.942;30.472;2023-04-24T02:30:05;15.20;;;3.90;;
29402;SDS011;16382;59.942;30.472;2023-04-24T02:32:35;6.97;;;3.97;;
29402;SDS011;16382;59.942;30.472;2023-04-24T02:35:04;18.95;;;4.18;;
29402;SDS011;16382;59.942;30.472;2023-04-24T02:37:33;19.05;;;4.28;;
29402;SDS011;16382;59.942;30.472;2023-04-24T02:40:00;11.13;;;4.60;;
29402;SDS011;16382;59.942;30.472;2023-04-24T02:42:30;11.25;;;3.85;;
29402;SDS011;16382;59.942;30.472;2023-04-24T02:44:58;10.30;;;4.30;;
29402;SDS011;16382;59.942;30.472;2023-04-24T02:47:25;10.10;;;3.83;;
29402;SDS011;16382;59.942;30.472;2023-04-24T02:49:54;7.10;;;4.07;;
29402;SDS011;16382;59.942;30.472;2023-04-24T02:52:22;12.40;;;3.90;;
29402;SDS011;16382;59.942;30.472;2023-04-24T02:54:49;10.80;;;3.75;;
29402;SDS011;16382;59.942;30.472;2023-04-24T02:57:17;12.98;;;4.43;;
29402;SDS011;16382;59.942;30.472;2023-04-24T02:59:45;5.85;;;3.90;;
29402;SDS011;16382;59.942;30.472;2023-04-24T03:02:12;14.27;;;4.45;;
29402;SDS011;16382;59.942;30.472;2023-04-24T03:04:40;7.78;;;3.95;;
29402;SDS011;16382;59.942;30.472;2023-04-24T03:07:11;8.75;;;4.28;;
29402;SDS011;16382;59.942;30.472;2023-04-24T03:09:39;8.77;;;4.95;;
29402;SDS011;16382;59.942;30.472;2023-04-24T03:12:07;12.30;;;4.47;;
29402;SDS011;16382;59.942;30.472;2023-04-24T03:14:35;10.10;;;4.25;;
29402;SDS011;16382;59.942;30.472;2023-04-24T03:17:02;10.48;;;4.07;;
29402;SDS011;16382;59.942;30.472;2023-04-24T03:19:30;11.65;;;4.10;;
29402;SDS011;16382;59.942;30.472;2023-04-24T03:22:03;7.88;;;3.88;;
29402;SDS011;16382;59.942;30.472;2023-04-24T03:24:34;13.60;;;4.40;;
29402;SDS011;16382;59.942;30.472;2023-04-24T03:27:01;13.85;;;5.13;;
29402;SDS011;16382;59.942;30.472;2023-04-24T03:29:48;7.70;;;4.18;;
29402;SDS011;16382;59.942;30.472;2023-04-24T03:32:20;11.25;;;4.70;;
29402;SDS011;16382;59.942;30.472;2023-04-24T03:34:49;8.75;;;4.05;;
29402;SDS011;16382;59.942;30.472;2023-04-24T03:37:16;11.38;;;4.82;;
29402;SDS011;16382;59.942;30.472;2023-04-24T03:39:54;11.65;;;4.88;;
29402;SDS011;16382;59.942;30.472;2023-04-24T03:42:24;11.93;;;4.30;;
29402;SDS011;16382;59.942;30.472;2023-04-24T03:44:54;10.45;;;4.30;;
29402;SDS011;16382;59.942;30.472;2023-04-24T03:47:30;6.63;;;4.25;;
29402;SDS011;16382;59.942;30.472;2023-04-24T03:50:00;14.88;;;4.68;;
29402;SDS011;16382;59.942;30.472;2023-04-24T03:52:29;11.70;;;5.00;;
29402;SDS011;16382;59.942;30.472;2023-04-24T03:54:58;11.13;;;4.50;;
29402;SDS011;16382;59.942;30.472;2023-04-24T03:57:29;14.15;;;5.78;;
29402;SDS011;16382;59.942;30.472;2023-04-24T04:00:06;14.55;;;5.03;;
29402;SDS011;16382;59.942;30.472;2023-04-24T04:02:40;11.85;;;4.75;;
29402;SDS011;16382;59.942;30.472;2023-04-24T04:05:09;14.55;;;4.88;;
29402;SDS011;16382;59.942;30.472;2023-04-24T04:07:37;10.50;;;5.00;;
29402;SDS011;16382;59.942;30.472;2023-04-24T04:10:09;11.77;;;4.50;;
29402;SDS011;16382;59.942;30.472;2023-04-24T04:12:37;15.23;;;5.00;;
29402;SDS011;16382;59.942;30.472;2023-04-24T04:15:07;11.27;;;5.53;;
29402;SDS011;16382;59.942;30.472;2023-04-24T04:17:36;16.35;;;4.95;;
29402;SDS011;16382;59.942;30.472;2023-04-24T04:20:06;18.73;;;5.55;;
29402;SDS011;16382;59.942;30.472;2023-04-24T04:22:37;16.70;;;5.88;;
29402;SDS011;16382;59.942;30.472;2023-04-24T04:25:10;12.90;;;4.95;;
29402;SDS011;16382;59.942;30.472;2023-04-24T04:27:39;18.55;;;6.43;;
29402;SDS011;16382;59.942;30.472;2023-04-24T04:30:09;12.02;;;5.32;;
29402;SDS011;16382;59.942;30.472;2023-04-24T04:32:54;10.45;;;5.05;;
29402;SDS011;16382;59.942;30.472;2023-04-24T04:35:29;13.73;;;5.10;;
29402;SDS011;16382;59.942;30.472;2023-04-24T04:37:58;14.90;;;5.28;;
29402;SDS011;16382;59.942;30.472;2023-04-24T04:40:55;19.23;;;5.40;;
29402;SDS011;16382;59.942;30.472;2023-04-24T04:43:26;12.73;;;5.25;;
29402;SDS011;16382;59.942;30.472;2023-04-24T04:46:11;10.93;;;4.95;;
29402;SDS011;16382;59.942;30.472;2023-04-24T04:48:59;11.95;;;5.20;;
29402;SDS011;16382;59.942;30.472;2023-04-24T04:51:27;13.75;;;5.03;;
29402;SDS011;16382;59.942;30.472;2023-04-24T04:53:55;14.75;;;4.80;;
29402;SDS011;16382;59.942;30.472;2023-04-24T04:56:25;13.23;;;4.60;;
29402;SDS011;16382;59.942;30.472;2023-04-24T04:58:54;17.08;;;5.53;;
29402;SDS011;16382;59.942;30.472;2023-04-24T05:01:21;14.10;;;4.72;;
29402;SDS011;16382;59.942;30.472;2023-04-24T05:03:50;9.80;;;4.93;;
29402;SDS011;16382;59.942;30.472;2023-04-24T05:06:17;18.83;;;4.95;;
29402;SDS011;16382;59.942;30.472;2023-04-24T05:08:46;9.30;;;4.63;;
29402;SDS011;16382;59.942;30.472;2023-04-24T05:11:28;14.05;;;4.65;;
29402;SDS011;16382;59.942;30.472;2023-04-24T05:13:57;12.65;;;5.03;;
29402;SDS011;16382;59.942;30.472;2023-04-24T05:16:32;17.75;;;5.22;;
29402;SDS011;16382;59.942;30.472;2023-04-24T05:19:01;12.88;;;5.20;;
29402;SDS011;16382;59.942;30.472;2023-04-24T05:21:38;14.32;;;5.07;;
29402;SDS011;16382;59.942;30.472;2023-04-24T05:24:07;18.63;;;5.38;;
29402;SDS011;16382;59.942;30.472;2023-04-24T05:26:56;12.02;;;5.05;;
29402;SDS011;16382;59.942;30.472;2023-04-24T05:29:32;18.15;;;5.18;;
29402;SDS011;16382;59.942;30.472;2023-04-24T05:32:00;23.33;;;5.70;;
29402;SDS011;16382;59.942;30.472;2023-04-24T05:34:30;14.55;;;5.78;;
29402;SDS011;16382;59.942;30.472;2023-04-24T05:36:57;16.15;;;4.90;;
29402;SDS011;16382;59.942;30.472;2023-04-24T05:39:25;16.50;;;5.32;;
29402;SDS011;16382;59.942;30.472;2023-04-24T05:41:54;11.85;;;5.38;;
29402;SDS011;16382;59.942;30.472;2023-04-24T05:44:25;14.88;;;5.10;;
29402;SDS011;16382;59.942;30.472;2023-04-24T05:46:52;15.80;;;5.90;;
29402;SDS011;16382;59.942;30.472;2023-04-24T05:49:21;16.17;;;5.40;;
29402;SDS011;16382;59.942;30.472;2023-04-24T05:51:49;18.70;;;4.75;;
29402;SDS011;16382;59.942;30.472;2023-04-24T05:54:17;18.35;;;4.55;;
29402;SDS011;16382;59.942;30.472;2023-04-24T05:56:45;12.93;;;4.90;;
29402;SDS011;16382;59.942;30.472;2023-04-24T05:59:18;15.68;;;4.60;;
29402;SDS011;16382;59.942;30.472;2023-04-24T06:01:49;11.30;;;4.60;;
29402;SDS011;16382;59.942;30.472;2023-04-24T06:04:19;11.60;;;4.22;;
29402;SDS011;16382;59.942;30.472;2023-04-24T06:06:47;13.13;;;4.35;;
29402;SDS011;16382;59.942;30.472;2023-04-24T06:09:17;12.05;;;4.38;;
29402;SDS011;16382;59.942;30.472;2023-04-24T06:11:44;11.02;;;3.58;;
29402;SDS011;16382;59.942;30.472;2023-04-24T06:14:13;18.65;;;4.30;;
29402;SDS011;16382;59.942;30.472;2023-04-24T06:17:15;15.45;;;4.95;;
29402;SDS011;16382;59.942;30.472;2023-04-24T06:19:47;15.00;;;4.75;;
29402;SDS011;16382;59.942;30.472;2023-04-24T06:22:15;15.15;;;4.07;;
29402;SDS011;16382;59.942;30.472;2023-04-24T06:24:43;15.73;;;3.90;;
29402;SDS011;16382;59.942;30.472;2023-04-24T06:27:11;15.77;;;4.10;;
29402;SDS011;16382;59.942;30.472;2023-04-24T06:29:40;15.25;;;4.70;;
29402;SDS011;16382;59.942;30.472;2023-04-24T06:32:08;12.25;;;4.13;;
29402;SDS011;16382;59.942;30.472;2023-04-24T06:34:38;16.90;;;4.30;;
29402;SDS011;16382;59.942;30.472;2023-04-24T06:37:05;15.18;;;4.50;;
29402;SDS011;16382;59.942;30.472;2023-04-24T06:39:33;17.63;;;4.55;;
29402;SDS011;16382;59.942;30.472;2023-04-24T06:42:00;18.02;;;4.20;;
29402;SDS011;16382;59.942;30.472;2023-04-24T06:44:32;18.50;;;4.40;;
29402;SDS011;16382;59.942;30.472;2023-04-24T06:47:07;13.25;;;4.80;;
29402;SDS011;16382;59.942;30.472;2023-04-24T06:49:35;9.95;;;4.20;;
29402;SDS011;16382;59.942;30.472;2023-04-24T06:52:04;12.05;;;4.00;;
29402;SDS011;16382;59.942;30.472;2023-04-24T06:54:32;12.77;;;3.97;;
29402;SDS011;16382;59.942;30.472;2023-04-24T06:57:00;15.90;;;4.28;;
29402;SDS011;16382;59.942;30.472;2023-04-24T06:59:29;22.90;;;4.18;;
29402;SDS011;16382;59.942;30.472;2023-04-24T07:01:56;17.70;;;4.10;;
29402;SDS011;16382;59.942;30.472;2023-04-24T07:04:24;15.63;;;4.05;;
29402;SDS011;16382;59.942;30.472;2023-04-24T07:06:53;10.88;;;3.90;;
29402;SDS011;16382;59.942;30.472;2023-04-24T07:09:23;16.48;;;4.15;;
29402;SDS011;16382;59.942;30.472;2023-04-24T07:11:52;16.52;;;3.50;;
29402;SDS011;16382;59.942;30.472;2023-04-24T07:14:22;17.73;;;3.88;;
29402;SDS011;16382;59.942;30.472;2023-04-24T07:16:49;17.08;;;3.92;;
29402;SDS011;16382;59.942;30.472;2023-04-24T07:19:17;15.88;;;3.80;;
29402;SDS011;16382;59.942;30.472;2023-04-24T07:21:44;12.02;;;3.25;;
29402;SDS011;16382;59.942;30.472;2023-04-24T07:24:16;13.00;;;3.72;;
29402;SDS011;16382;59.942;30.472;2023-04-24T07:26:44;26.23;;;3.70;;
29402;SDS011;16382;59.942;30.472;2023-04-24T07:29:12;22.17;;;3.30;;
29402;SDS011;16382;59.942;30.472;2023-04-24T07:31:40;37.35;;;4.22;;
29402;SDS011;16382;59.942;30.472;2023-04-24T07:34:07;11.85;;;3.28;;
29402;SDS011;16382;59.942;30.472;2023-04-24T07:36:35;18.08;;;3.42;;
29402;SDS011;16382;59.942;30.472;2023-04-24T07:39:04;13.70;;;3.80;;
29402;SDS011;16382;59.942;30.472;2023-04-24T07:41:34;16.20;;;3.03;;
29402;SDS011;16382;59.942;30.472;2023-04-24T07:44:01;23.60;;;3.58;;
29402;SDS011;16382;59.942;30.472;2023-04-24T07:46:29;30.27;;;4.20;;
29402;SDS011;16382;59.942;30.472;2023-04-24T07:48:57;24.35;;;4.28;;
29402;SDS011;16382;59.942;30.472;2023-04-24T07:51:26;17.67;;;3.20;;
29402;SDS011;16382;59.942;30.472;2023-04-24T07:53:54;31.33;;;3.83;;
29402;SDS011;16382;59.942;30.472;2023-04-24T07:56:22;31.65;;;3.65;;
29402;SDS011;16382;59.942;30.472;2023-04-24T07:58:51;22.42;;;3.45;;
29402;SDS011;16382;59.942;30.472;2023-04-24T08:01:18;31.67;;;3.45;;
29402;SDS011;16382;59.942;30.472;2023-04-24T08:03:46;15.75;;;3.00;;
29402;SDS011;16382;59.942;30.472;2023-04-24T08:06:13;17.15;;;2.90;;
29402;SDS011;16382;59.942;30.472;2023-04-24T08:08:41;14.88;;;2.88;;
29402;SDS011;16382;59.942;30.472;2023-04-24T08:11:08;27.08;;;3.88;;
29402;SDS011;16382;59.942;30.472;2023-04-24T08:13:36;18.13;;;3.90;;
29402;SDS011;16382;59.942;30.472;2023-04-24T08:16:05;41.75;;;4.30;;
29402;SDS011;16382;59.942;30.472;2023-04-24T08:18:32;28.63;;;3.40;;
29402;SDS011;16382;59.942;30.472;2023-04-24T08:21:01;29.60;;;3.85;;
29402;SDS011;16382;59.942;30.472;2023-04-24T08:23:29;26.20;;;3.45;;
29402;SDS011;16382;59.942;30.472;2023-04-24T08:25:56;18.30;;;3.33;;
29402;SDS011;16382;59.942;30.472;2023-04-24T08:28:24;54.45;;;5.65;;
29402;SDS011;16382;59.942;30.472;2023-04-24T08:30:52;78.22;;;6.20;;
29402;SDS011;16382;59.942;30.472;2023-04-24T08:33:22;38.03;;;4.32;;
29402;SDS011;16382;59.942;30.472;2023-04-24T08:35:50;41.72;;;3.60;;
29402;SDS011;16382;59.942;30.472;2023-04-24T08:38:17;18.30;;;3.05;;
29402;SDS011;16382;59.942;30.472;2023-04-24T08:40:47;27.45;;;3.20;;
29402;SDS011;16382;59.942;30.472;2023-04-24T08:43:15;34.30;;;4.10;;
29402;SDS011;16382;59.942;30.472;2023-04-24T08:45:45;28.63;;;4.05;;
29402;SDS011;16382;59.942;30.472;2023-04-24T08:48:12;16.08;;;3.70;;
29402;SDS011;16382;59.942;30.472;2023-04-24T08:50:42;25.33;;;4.05;;
29402;SDS011;16382;59.942;30.472;2023-04-24T08:53:11;23.30;;;3.75;;
29402;SDS011;16382;59.942;30.472;2023-04-24T08:55:38;22.17;;;3.15;;
29402;SDS011;16382;59.942;30.472;2023-04-24T08:58:07;33.83;;;3.60;;
29402;SDS011;16382;59.942;30.472;2023-04-24T09:00:35;22.60;;;3.88;;
29402;SDS011;16382;59.942;30.472;2023-04-24T09:03:05;29.73;;;3.92;;
29402;SDS011;16382;59.942;30.472;2023-04-24T09:05:33;22.38;;;4.03;;
29402;SDS011;16382;59.942;30.472;2023-04-24T09:08:02;19.50;;;3.92;;
29402;SDS011;16382;59.942;30.472;2023-04-24T09:10:37;26.13;;;3.65;;
29402;SDS011;16382;59.942;30.472;2023-04-24T09:13:07;41.25;;;4.45;;
29402;SDS011;16382;59.942;30.472;2023-04-24T09:15:35;30.67;;;3.80;;
29402;SDS011;16382;59.942;30.472;2023-04-24T09:18:04;16.05;;;3.38;;
29402;SDS011;16382;59.942;30.472;2023-04-24T09:20:32;16.70;;;3.10;;
29402;SDS011;16382;59.942;30.472;2023-04-24T09:23:03;12.80;;;3.53;;
29402;SDS011;16382;59.942;30.472;2023-04-24T09:25:32;15.35;;;2.50;;
29402;SDS011;16382;59.942;30.472;2023-04-24T09:30:19;8.32;;;3.08;;
29402;SDS011;16382;59.942;30.472;2023-04-24T09:31:44;24.98;;;4.25;;
29402;SDS011;16382;59.942;30.472;2023-04-24T09:34:12;18.83;;;3.90;;
29402;SDS011;16382;59.942;30.472;2023-04-24T09:36:41;24.55;;;3.10;;
29402;SDS011;16382;59.942;30.472;2023-04-24T09:39:11;11.93;;;3.10;;
29402;SDS011;16382;59.942;30.472;2023-04-24T09:41:45;16.13;;;3.10;;
29402;SDS011;16382;59.942;30.472;2023-04-24T09:44:17;11.05;;;3.20;;
29402;SDS011;16382;59.942;30.472;2023-04-24T09:46:48;12.70;;;3.65;;
29402;SDS011;16382;59.942;30.472;2023-04-24T09:49:22;12.60;;;3.50;;
29402;SDS011;16382;59.942;30.472;2023-04-24T09:51:52;8.30;;;2.85;;
29402;SDS011;16382;59.942;30.472;2023-04-24T09:54:31;19.83;;;3.65;;
29402;SDS011;16382;59.942;30.472;2023-04-24T09:57:03;20.35;;;4.53;;
29402;SDS011;16382;59.942;30.472;2023-04-24T09:59:38;12.70;;;3.28;;
29402;SDS011;16382;59.942;30.472;2023-04-24T10:02:16;10.27;;;2.88;;
29402;SDS011;16382;59.942;30.472;2023-04-24T10:04:53;13.02;;;3.05;;
29402;SDS011;16382;59.942;30.472;2023-04-24T10:07:22;13.50;;;2.80;;
29402;SDS011;16382;59.942;30.472;2023-04-24T10:09:54;15.98;;;3.65;;
29402;SDS011;16382;59.942;30.472;2023-04-24T10:12:22;8.50;;;3.20;;
29402;SDS011;16382;59.942;30.472;2023-04-24T10:14:51;13.90;;;3.70;;
29402;SDS011;16382;59.942;30.472;2023-04-24T10:17:18;10.45;;;3.20;;
29402;SDS011;16382;59.942;30.472;2023-04-24T10:19:47;9.45;;;3.13;;
29402;SDS011;16382;59.942;30.472;2023-04-24T10:22:15;11.80;;;3.42;;
29402;SDS011;16382;59.942;30.472;2023-04-24T10:24:44;15.32;;;3.70;;
29402;SDS011;16382;59.942;30.472;2023-04-24T10:27:15;15.25;;;3.70;;
29402;SDS011;16382;59.942;30.472;2023-04-24T10:29:43;13.77;;;3.83;;
29402;SDS011;16382;59.942;30.472;2023-04-24T10:32:14;28.50;;;4.00;;
29402;SDS011;16382;59.942;30.472;2023-04-24T10:34:41;8.20;;;3.72;;
29402;SDS011;16382;59.942;30.472;2023-04-24T10:37:09;10.07;;;3.10;;
29402;SDS011;16382;59.942;30.472;2023-04-24T10:39:39;20.42;;;3.78;;
29402;SDS011;16382;59.942;30.472;2023-04-24T10:42:15;10.00;;;3.42;;
29402;SDS011;16382;59.942;30.472;2023-04-24T10:44:43;16.05;;;3.67;;
29402;SDS011;16382;59.942;30.472;2023-04-24T10:47:14;11.18;;;3.13;;
29402;SDS011;16382;59.942;30.472;2023-04-24T10:49:41;14.10;;;3.60;;
29402;SDS011;16382;59.942;30.472;2023-04-24T10:52:10;9.43;;;2.92;;
29402;SDS011;16382;59.942;30.472;2023-04-24T10:54:44;10.48;;;2.92;;
29402;SDS011;16382;59.942;30.472;2023-04-24T10:57:27;7.10;;;2.88;;
29402;SDS011;16382;59.942;30.472;2023-04-24T11:00:10;15.38;;;3.55;;
29402;SDS011;16382;59.942;30.472;2023-04-24T11:02:45;15.20;;;3.80;;
29402;SDS011;16382;59.942;30.472;2023-04-24T11:05:18;12.35;;;4.28;;
29402;SDS011;16382;59.942;30.472;2023-04-24T11:11:01;11.55;;;2.97;;
29402;SDS011;16382;59.942;30.472;2023-04-24T11:14:02;16.35;;;3.20;;
29402;SDS011;16382;59.942;30.472;2023-04-24T11:16:34;8.15;;;3.50;;
29402;SDS011;16382;59.942;30.472;2023-04-24T11:19:06;8.40;;;3.85;;
29402;SDS011;16382;59.942;30.472;2023-04-24T11:21:41;8.93;;;3.50;;
29402;SDS011;16382;59.942;30.472;2023-04-24T11:27:22;12.15;;;3.20;;
29402;SDS011;16382;59.942;30.472;2023-04-24T11:29:59;13.77;;;3.35;;
29402;SDS011;16382;59.942;30.472;2023-04-24T11:32:35;15.23;;;3.17;;
29402;SDS011;16382;59.942;30.472;2023-04-24T11:35:05;4.97;;;2.72;;
29402;SDS011;16382;59.942;30.472;2023-04-24T11:37:38;9.20;;;3.72;;
29402;SDS011;16382;59.942;30.472;2023-04-24T11:40:07;15.23;;;3.95;;
29402;SDS011;16382;59.942;30.472;2023-04-24T11:42:37;10.40;;;3.05;;
29402;SDS011;16382;59.942;30.472;2023-04-24T11:45:09;8.80;;;3.00;;
29402;SDS011;16382;59.942;30.472;2023-04-24T11:47:39;10.73;;;4.15;;
29402;SDS011;16382;59.942;30.472;2023-04-24T11:50:07;15.10;;;3.58;;
29402;SDS011;16382;59.942;30.472;2023-04-24T11:52:39;19.58;;;4.13;;
29402;SDS011;16382;59.942;30.472;2023-04-24T11:55:13;15.13;;;3.55;;
29402;SDS011;16382;59.942;30.472;2023-04-24T11:57:52;11.48;;;3.38;;
29402;SDS011;16382;59.942;30.472;2023-04-24T12:00:24;7.28;;;3.35;;
29402;SDS011;16382;59.942;30.472;2023-04-24T12:03:03;18.08;;;3.72;;
29402;SDS011;16382;59.942;30.472;2023-04-24T12:05:33;8.02;;;3.70;;
29402;SDS011;16382;59.942;30.472;2023-04-24T12:08:01;13.25;;;3.75;;
29402;SDS011;16382;59.942;30.472;2023-04-24T12:10:29;11.27;;;3.50;;
29402;SDS011;16382;59.942;30.472;2023-04-24T12:12:59;11.48;;;4.00;;
29402;SDS011;16382;59.942;30.472;2023-04-24T12:15:28;25.40;;;4.68;;
29402;SDS011;16382;59.942;30.472;2023-04-24T12:17:56;13.18;;;4.18;;
29402;SDS011;16382;59.942;30.472;2023-04-24T12:20:24;10.90;;;3.92;;
29402;SDS011;16382;59.942;30.472;2023-04-24T12:22:54;11.77;;;4.43;;
29402;SDS011;16382;59.942;30.472;2023-04-24T12:25:25;11.25;;;3.80;;
29402;SDS011;16382;59.942;30.472;2023-04-24T12:27:54;16.05;;;4.13;;
29402;SDS011;16382;59.942;30.472;2023-04-24T12:30:40;14.07;;;4.43;;
29402;SDS011;16382;59.942;30.472;2023-04-24T12:33:10;10.93;;;4.00;;
29402;SDS011;16382;59.942;30.472;2023-04-24T12:35:39;16.45;;;4.53;;
29402;SDS011;16382;59.942;30.472;2023-04-24T12:38:07;11.00;;;4.20;;
29402;SDS011;16382;59.942;30.472;2023-04-24T12:40:37;13.98;;;4.32;;
29402;SDS011;16382;59.942;30.472;2023-04-24T12:43:14;16.45;;;4.57;;
29402;SDS011;16382;59.942;30.472;2023-04-24T12:45:44;15.57;;;4.20;;
29402;SDS011;16382;59.942;30.472;2023-04-24T12:48:12;17.75;;;3.88;;
29402;SDS011;16382;59.942;30.472;2023-04-24T12:50:40;15.32;;;4.28;;
29402;SDS011;16382;59.942;30.472;2023-04-24T12:53:08;20.58;;;4.65;;
29402;SDS011;16382;59.942;30.472;2023-04-24T12:55:38;11.02;;;4.28;;
29402;SDS011;16382;59.942;30.472;2023-04-24T12:58:05;17.23;;;4.35;;
29402;SDS011;16382;59.942;30.472;2023-04-24T13:00:33;12.52;;;3.78;;
29402;SDS011;16382;59.942;30.472;2023-04-24T13:03:02;11.52;;;4.00;;
29402;SDS011;16382;59.942;30.472;2023-04-24T13:05:30;12.85;;;4.68;;
29402;SDS011;16382;59.942;30.472;2023-04-24T13:07:58;11.38;;;4.63;;
29402;SDS011;16382;59.942;30.472;2023-04-24T13:10:26;16.33;;;4.88;;
29402;SDS011;16382;59.942;30.472;2023-04-24T13:12:53;11.60;;;3.75;;
29402;SDS011;16382;59.942;30.472;2023-04-24T13:15:21;13.02;;;3.63;;
29402;SDS011;16382;59.942;30.472;2023-04-24T13:17:50;12.10;;;4.97;;
29402;SDS011;16382;59.942;30.472;2023-04-24T13:20:19;11.05;;;3.40;;
29402;SDS011;16382;59.942;30.472;2023-04-24T13:22:47;9.35;;;3.70;;
29402;SDS011;16382;59.942;30.472;2023-04-24T13:25:15;8.63;;;4.65;;
29402;SDS011;16382;59.942;30.472;2023-04-24T13:27:44;13.73;;;4.10;;
29402;SDS011;16382;59.942;30.472;2023-04-24T13:30:12;11.00;;;3.85;;
29402;SDS011;16382;59.942;30.472;2023-04-24T13:32:40;8.07;;;3.72;;
29402;SDS011;16382;59.942;30.472;2023-04-24T13:35:08;8.43;;;4.20;;
29402;SDS011;16382;59.942;30.472;2023-04-24T13:37:37;16.27;;;4.00;;
29402;SDS011;16382;59.942;30.472;2023-04-24T13:40:05;17.05;;;4.13;;
29402;SDS011;16382;59.942;30.472;2023-04-24T13:42:34;25.00;;;4.07;;
29402;SDS011;16382;59.942;30.472;2023-04-24T13:45:02;9.85;;;3.92;;
29402;SDS011;16382;59.942;30.472;2023-04-24T13:47:31;10.05;;;4.07;;
29402;SDS011;16382;59.942;30.472;2023-04-24T13:50:09;12.20;;;4.28;;
29402;SDS011;16382;59.942;30.472;2023-04-24T13:52:38;18.33;;;5.28;;
29402;SDS011;16382;59.942;30.472;2023-04-24T13:55:09;14.45;;;4.00;;
29402;SDS011;16382;59.942;30.472;2023-04-24T13:57:40;9.88;;;4.65;;
29402;SDS011;16382;59.942;30.472;2023-04-24T14:00:08;18.38;;;4.07;;
29402;SDS011;16382;59.942;30.472;2023-04-24T14:02:36;9.90;;;4.07;;
29402;SDS011;16382;59.942;30.472;2023-04-24T14:05:04;17.08;;;4.28;;
29402;SDS011;16382;59.942;30.472;2023-04-24T14:07:33;12.18;;;4.60;;
29402;SDS011;16382;59.942;30.472;2023-04-24T14:10:05;10.73;;;4.07;;
29402;SDS011;16382;59.942;30.472;2023-04-24T14:12:34;13.55;;;4.85;;
29402;SDS011;16382;59.942;30.472;2023-04-24T14:15:25;12.05;;;4.82;;
29402;SDS011;16382;59.942;30.472;2023-04-24T14:17:57;16.02;;;4.50;;
29402;SDS011;16382;59.942;30.472;2023-04-24T14:20:27;14.00;;;5.60;;
29402;SDS011;16382;59.942;30.472;2023-04-24T14:22:59;12.57;;;5.63;;
29402;SDS011;16382;59.942;30.472;2023-04-24T14:25:32;10.35;;;5.32;;
29402;SDS011;16382;59.942;30.472;2023-04-24T14:28:01;20.92;;;5.43;;
29402;SDS011;16382;59.942;30.472;2023-04-24T14:30:31;17.45;;;6.25;;
29402;SDS011;16382;59.942;30.472;2023-04-24T14:32:58;17.00;;;4.90;;
29402;SDS011;16382;59.942;30.472;2023-04-24T14:35:25;11.30;;;5.07;;
29402;SDS011;16382;59.942;30.472;2023-04-24T14:37:54;8.82;;;5.65;;
29402;SDS011;16382;59.942;30.472;2023-04-24T14:40:21;16.17;;;5.38;;
29402;SDS011;16382;59.942;30.472;2023-04-24T14:42:51;14.43;;;5.50;;
29402;SDS011;16382;59.942;30.472;2023-04-24T14:45:18;11.98;;;5.28;;
29402;SDS011;16382;59.942;30.472;2023-04-24T14:47:46;11.38;;;4.75;;